createdAt,value
2017-09-25T00:00:49.689Z,0
2017-09-25T00:01:51.069Z,0
2017-09-25T00:02:52.430Z,0
2017-09-25T00:03:53.797Z,0
2017-09-25T00:04:55.169Z,0
2017-09-25T00:05:56.537Z,0
2017-09-25T00:06:57.908Z,0
2017-09-25T00:07:59.282Z,0
2017-09-25T00:09:00.654Z,0
2017-09-25T00:10:02.025Z,0
2017-09-25T00:11:03.396Z,0
2017-09-25T00:12:04.768Z,0
2017-09-25T00:13:06.136Z,0
2017-09-25T00:14:07.505Z,0
2017-09-25T00:15:08.880Z,0
2017-09-25T00:16:10.251Z,0
2017-09-25T00:17:11.620Z,0
2017-09-25T00:18:12.991Z,0
2017-09-25T00:19:14.362Z,0
2017-09-25T00:20:15.732Z,0
2017-09-25T00:21:17.100Z,0
2017-09-25T00:22:18.473Z,0
2017-09-25T00:23:19.847Z,0
2017-09-25T00:24:21.213Z,0
2017-09-25T00:25:22.582Z,0
2017-09-25T00:26:23.952Z,0
2017-09-25T00:27:25.323Z,0
2017-09-25T00:28:26.691Z,0
2017-09-25T00:29:28.064Z,0
2017-09-25T00:30:29.437Z,0
2017-09-25T00:31:30.807Z,0
2017-09-25T00:32:32.176Z,0
2017-09-25T00:33:33.557Z,0
2017-09-25T00:34:34.932Z,0
2017-09-25T00:35:36.304Z,0
2017-09-25T00:36:37.676Z,0
2017-09-25T00:37:39.046Z,0
2017-09-25T00:38:40.416Z,0
2017-09-25T00:39:41.788Z,0
2017-09-25T00:40:43.157Z,0
2017-09-25T00:41:44.531Z,0
2017-09-25T00:42:45.901Z,0
2017-09-25T00:43:47.273Z,0
2017-09-25T00:44:48.646Z,0
2017-09-25T00:45:50.017Z,0
2017-09-25T00:46:51.385Z,0
2017-09-25T00:47:52.757Z,0
2017-09-25T00:48:54.128Z,0
2017-09-25T00:49:55.500Z,0
2017-09-25T00:50:56.871Z,0
2017-09-25T00:51:58.245Z,0
2017-09-25T00:52:59.616Z,0
2017-09-25T00:54:00.987Z,0
2017-09-25T00:55:02.364Z,0
2017-09-25T00:56:03.734Z,0
2017-09-25T00:57:05.108Z,0
2017-09-25T00:58:06.480Z,0
2017-09-25T00:59:07.850Z,0
2017-09-25T01:00:09.220Z,0
2017-09-25T01:01:10.589Z,0
2017-09-25T01:02:11.957Z,0
2017-09-25T01:03:13.330Z,0
2017-09-25T01:04:14.701Z,0
2017-09-25T01:05:16.077Z,0
2017-09-25T01:06:17.457Z,0
2017-09-25T01:07:18.841Z,0
2017-09-25T01:08:20.208Z,0
2017-09-25T01:09:21.582Z,0
2017-09-25T01:10:22.953Z,0
2017-09-25T01:11:24.327Z,0
2017-09-25T01:12:25.692Z,0
2017-09-25T01:13:27.068Z,0
2017-09-25T01:14:28.441Z,0
2017-09-25T01:15:29.812Z,0
2017-09-25T01:16:31.184Z,0
2017-09-25T01:17:32.553Z,0
2017-09-25T01:18:33.928Z,0
2017-09-25T01:19:35.302Z,0
2017-09-25T01:20:36.668Z,0
2017-09-25T01:21:38.037Z,0
2017-09-25T01:22:39.408Z,0
2017-09-25T01:23:40.780Z,0
2017-09-25T01:24:42.151Z,0
2017-09-25T01:25:43.522Z,0
2017-09-25T01:26:44.894Z,0
2017-09-25T01:27:46.270Z,0
2017-09-25T01:28:47.634Z,0
2017-09-25T01:29:49.001Z,0
2017-09-25T01:30:50.373Z,0
2017-09-25T01:31:51.745Z,0
2017-09-25T01:32:53.120Z,0
2017-09-25T01:33:54.487Z,0
2017-09-25T01:34:55.859Z,0
2017-09-25T01:35:57.233Z,0
2017-09-25T01:36:58.604Z,0
2017-09-25T01:37:59.976Z,0
2017-09-25T01:39:01.349Z,0
2017-09-25T01:40:02.717Z,0
2017-09-25T01:41:04.088Z,0
2017-09-25T01:42:05.460Z,0
2017-09-25T01:43:06.832Z,0
2017-09-25T01:44:08.197Z,0
2017-09-25T01:45:09.569Z,0
2017-09-25T01:46:10.941Z,0
2017-09-25T01:47:12.315Z,0
2017-09-25T01:48:13.686Z,0
2017-09-25T01:49:15.060Z,0
2017-09-25T01:50:16.433Z,0
2017-09-25T01:51:17.802Z,0
2017-09-25T01:52:19.172Z,0
2017-09-25T01:53:20.543Z,0
2017-09-25T01:54:21.912Z,0
2017-09-25T01:55:23.285Z,0
2017-09-25T01:56:24.654Z,0
2017-09-25T01:57:26.026Z,0
2017-09-25T01:58:27.412Z,0
2017-09-25T01:59:28.779Z,0
2017-09-25T02:00:30.151Z,0
2017-09-25T02:01:31.523Z,0
2017-09-25T02:02:32.896Z,0
2017-09-25T02:03:34.266Z,0
2017-09-25T02:04:35.635Z,0
2017-09-25T02:05:37.009Z,0
2017-09-25T02:06:38.379Z,0
2017-09-25T02:07:39.750Z,0
2017-09-25T02:08:41.121Z,0
2017-09-25T02:09:42.496Z,0
2017-09-25T02:10:43.869Z,0
2017-09-25T02:11:45.238Z,0
2017-09-25T02:12:46.607Z,0
2017-09-25T02:13:47.981Z,0
2017-09-25T02:14:49.344Z,0
2017-09-25T02:15:50.716Z,0
2017-09-25T02:16:52.088Z,0
2017-09-25T02:17:53.459Z,0
2017-09-25T02:18:54.829Z,0
2017-09-25T02:19:56.203Z,0
2017-09-25T02:20:57.569Z,0
2017-09-25T02:21:58.940Z,0
2017-09-25T02:23:00.309Z,0
2017-09-25T02:24:01.690Z,0
2017-09-25T02:25:03.058Z,0
2017-09-25T02:26:04.428Z,0
2017-09-25T02:27:05.805Z,0
2017-09-25T02:28:07.164Z,0
2017-09-25T02:29:08.538Z,0
2017-09-25T02:30:09.909Z,0
2017-09-25T02:31:11.280Z,0
2017-09-25T02:32:12.652Z,0
2017-09-25T02:33:14.029Z,0
2017-09-25T02:34:15.394Z,0
2017-09-25T02:35:16.765Z,0
2017-09-25T02:36:18.133Z,0
2017-09-25T02:37:19.505Z,0
2017-09-25T02:38:20.882Z,0
2017-09-25T02:39:22.249Z,0
2017-09-25T02:40:23.619Z,0
2017-09-25T02:41:24.993Z,0
2017-09-25T02:42:26.366Z,0
2017-09-25T02:43:27.734Z,0
2017-09-25T02:44:29.114Z,0
2017-09-25T02:45:30.486Z,0
2017-09-25T02:46:31.854Z,0
2017-09-25T02:47:33.229Z,0
2017-09-25T02:48:34.605Z,0
2017-09-25T02:49:35.971Z,0
2017-09-25T02:50:37.345Z,0
2017-09-25T02:51:38.719Z,0
2017-09-25T02:52:40.092Z,0
2017-09-25T02:53:41.467Z,0
2017-09-25T02:54:42.838Z,0
2017-09-25T02:55:44.204Z,0
2017-09-25T02:56:45.583Z,0
2017-09-25T02:57:46.946Z,0
2017-09-25T02:58:48.316Z,0
2017-09-25T02:59:49.688Z,0
2017-09-25T03:00:51.058Z,0
2017-09-25T03:01:52.424Z,0
2017-09-25T03:02:53.795Z,0
2017-09-25T03:03:55.166Z,0
2017-09-25T03:04:56.533Z,0
2017-09-25T03:05:57.906Z,0
2017-09-25T03:06:59.278Z,0
2017-09-25T03:08:00.651Z,0
2017-09-25T03:09:02.019Z,0
2017-09-25T03:10:03.386Z,0
2017-09-25T03:11:04.759Z,0
2017-09-25T03:12:06.128Z,0
2017-09-25T03:13:07.499Z,0
2017-09-25T03:14:08.871Z,0
2017-09-25T03:15:10.244Z,0
2017-09-25T03:16:11.613Z,0
2017-09-25T03:17:12.990Z,0
2017-09-25T03:18:14.353Z,0
2017-09-25T03:19:15.723Z,0
2017-09-25T03:20:17.093Z,0
2017-09-25T03:21:18.463Z,0
2017-09-25T03:22:19.835Z,0
2017-09-25T03:23:21.202Z,0
2017-09-25T03:24:22.572Z,0
2017-09-25T03:25:23.942Z,0
2017-09-25T03:26:25.312Z,0
2017-09-25T03:27:26.684Z,0
2017-09-25T03:28:28.048Z,0
2017-09-25T03:29:29.429Z,0
2017-09-25T03:30:30.801Z,0
2017-09-25T03:31:32.167Z,0
2017-09-25T03:32:33.537Z,0
2017-09-25T03:33:34.905Z,0
2017-09-25T03:34:36.275Z,0
2017-09-25T03:35:37.645Z,0
2017-09-25T03:36:39.020Z,0
2017-09-25T03:37:40.386Z,0
2017-09-25T03:38:41.757Z,0
2017-09-25T03:39:43.126Z,0
2017-09-25T03:40:44.495Z,0
2017-09-25T03:41:45.864Z,0
2017-09-25T03:42:47.232Z,0
2017-09-25T03:43:48.609Z,0
2017-09-25T03:44:49.977Z,0
2017-09-25T03:45:51.348Z,0
2017-09-25T03:46:52.720Z,0
2017-09-25T03:47:54.090Z,0
2017-09-25T03:48:55.458Z,0
2017-09-25T03:49:56.830Z,0
2017-09-25T03:50:58.212Z,0
2017-09-25T03:51:59.571Z,0
2017-09-25T03:53:00.942Z,0
2017-09-25T03:54:02.311Z,0
2017-09-25T03:55:03.684Z,0
2017-09-25T03:56:05.054Z,0
2017-09-25T03:57:06.424Z,0
2017-09-25T03:58:07.797Z,0
2017-09-25T03:59:09.168Z,0
2017-09-25T04:00:10.535Z,0
2017-09-25T04:01:11.907Z,0
2017-09-25T04:02:13.279Z,0
2017-09-25T04:03:14.676Z,0
2017-09-25T04:04:16.048Z,0
2017-09-25T04:05:17.421Z,0
2017-09-25T04:06:18.789Z,0
2017-09-25T04:07:20.159Z,0
2017-09-25T04:08:21.536Z,0
2017-09-25T04:09:22.902Z,0
2017-09-25T04:10:24.282Z,0
2017-09-25T04:11:25.651Z,0
2017-09-25T04:12:27.022Z,0
2017-09-25T04:13:28.396Z,0
2017-09-25T04:14:29.763Z,0
2017-09-25T04:15:31.133Z,0
2017-09-25T04:16:32.505Z,0
2017-09-25T04:17:33.880Z,0
2017-09-25T04:18:35.250Z,0
2017-09-25T04:19:36.620Z,0
2017-09-25T04:20:37.988Z,0
2017-09-25T04:21:39.357Z,0
2017-09-25T04:22:40.732Z,0
2017-09-25T04:23:42.103Z,0
2017-09-25T04:24:43.474Z,0
2017-09-25T04:25:44.845Z,0
2017-09-25T04:26:46.220Z,0
2017-09-25T04:27:47.585Z,0
2017-09-25T04:28:48.953Z,0
2017-09-25T04:29:50.325Z,0
2017-09-25T04:30:51.697Z,0
2017-09-25T04:31:53.077Z,0
2017-09-25T04:32:54.449Z,0
2017-09-25T04:33:55.824Z,0
2017-09-25T04:34:57.195Z,0
2017-09-25T04:35:58.562Z,0
2017-09-25T04:36:59.932Z,0
2017-09-25T04:38:01.303Z,0
2017-09-25T04:39:02.676Z,0
2017-09-25T04:40:04.046Z,0
2017-09-25T04:41:05.418Z,0
2017-09-25T04:42:06.787Z,0
2017-09-25T04:43:08.158Z,0
2017-09-25T04:44:09.531Z,0
2017-09-25T04:45:10.897Z,0
2017-09-25T04:46:12.265Z,0
2017-09-25T04:47:13.634Z,0
2017-09-25T04:48:15.009Z,0
2017-09-25T04:49:16.376Z,0
2017-09-25T04:50:17.746Z,0
2017-09-25T04:51:19.115Z,0
2017-09-25T04:52:20.490Z,4
2017-09-25T04:53:21.855Z,4
2017-09-25T04:54:23.228Z,4
2017-09-25T04:55:24.599Z,0
2017-09-25T04:56:25.968Z,4
2017-09-25T04:57:27.341Z,4
2017-09-25T04:58:28.709Z,4
2017-09-25T04:59:30.079Z,8
2017-09-25T05:00:31.449Z,8
2017-09-25T05:01:32.821Z,12
2017-09-25T05:02:34.193Z,16
2017-09-25T05:03:35.566Z,16
2017-09-25T05:04:36.937Z,16
2017-09-25T05:05:38.308Z,20
2017-09-25T05:06:39.681Z,24
2017-09-25T05:07:41.050Z,32
2017-09-25T05:08:42.421Z,40
2017-09-25T05:09:43.799Z,44
2017-09-25T05:10:45.167Z,52
2017-09-25T05:11:46.537Z,56
2017-09-25T05:12:47.910Z,68
2017-09-25T05:13:49.279Z,80
2017-09-25T05:14:50.664Z,92
2017-09-25T05:15:52.035Z,100
2017-09-25T05:16:53.413Z,112
2017-09-25T05:17:54.778Z,112
2017-09-25T05:18:56.150Z,124
2017-09-25T05:19:57.521Z,136
2017-09-25T05:20:58.893Z,160
2017-09-25T05:22:00.265Z,176
2017-09-25T05:23:01.637Z,192
2017-09-25T05:24:03.010Z,216
2017-09-25T05:25:04.384Z,248
2017-09-25T05:26:05.754Z,300
2017-09-25T05:27:07.127Z,332
2017-09-25T05:28:08.502Z,356
2017-09-25T05:29:09.879Z,392
2017-09-25T05:30:11.251Z,428
2017-09-25T05:31:12.628Z,492
2017-09-25T05:32:13.999Z,536
2017-09-25T05:33:15.375Z,600
2017-09-25T05:34:16.743Z,652
2017-09-25T05:35:18.118Z,648
2017-09-25T05:36:19.493Z,616
2017-09-25T05:37:20.868Z,596
2017-09-25T05:38:22.242Z,668
2017-09-25T05:39:23.615Z,720
2017-09-25T05:40:24.986Z,764
2017-09-25T05:41:26.358Z,780
2017-09-25T05:42:27.732Z,828
2017-09-25T05:43:29.109Z,888
2017-09-25T05:44:30.481Z,932
2017-09-25T05:45:31.854Z,976
2017-09-25T05:46:33.233Z,1024
2017-09-25T05:47:34.604Z,1052
2017-09-25T05:48:35.982Z,1132
2017-09-25T05:49:37.359Z,1168
2017-09-25T05:50:38.733Z,1196
2017-09-25T05:51:40.108Z,1236
2017-09-25T05:52:41.484Z,1276
2017-09-25T05:53:42.859Z,1356
2017-09-25T05:54:44.235Z,1400
2017-09-25T05:55:45.607Z,1464
2017-09-25T05:56:46.982Z,1480
2017-09-25T05:57:48.358Z,1488
2017-09-25T05:58:49.732Z,1548
2017-09-25T05:59:51.109Z,1620
2017-09-25T06:00:52.478Z,1692
2017-09-25T06:01:53.856Z,1700
2017-09-25T06:02:55.234Z,1604
2017-09-25T06:03:56.607Z,1576
2017-09-25T06:04:57.982Z,1588
2017-09-25T06:05:59.356Z,1640
2017-09-25T06:07:00.732Z,1736
2017-09-25T06:08:02.109Z,1788
2017-09-25T06:09:03.486Z,1924
2017-09-25T06:10:04.862Z,2088
2017-09-25T06:11:06.236Z,2180
2017-09-25T06:12:07.611Z,2200
2017-09-25T06:13:08.989Z,2204
2017-09-25T06:14:10.365Z,2272
2017-09-25T06:15:11.740Z,2404
2017-09-25T06:16:13.114Z,2528
2017-09-25T06:17:14.489Z,2620
2017-09-25T06:18:15.863Z,2604
2017-09-25T06:19:17.243Z,2608
2017-09-25T06:20:18.625Z,2676
2017-09-25T06:21:20.009Z,2756
2017-09-25T06:22:21.378Z,2824
2017-09-25T06:23:22.752Z,2956
2017-09-25T06:24:24.129Z,3212
2017-09-25T06:25:25.505Z,3360
2017-09-25T06:26:26.881Z,3584
2017-09-25T06:27:28.264Z,3624
2017-09-25T06:28:29.645Z,3548
2017-09-25T06:29:31.020Z,3584
2017-09-25T06:30:32.395Z,3612
2017-09-25T06:31:33.771Z,3936
2017-09-25T06:32:35.147Z,4004
2017-09-25T06:33:36.522Z,3784
2017-09-25T06:34:37.899Z,3460
2017-09-25T06:35:39.293Z,3280
2017-09-25T06:36:40.649Z,3392
2017-09-25T06:37:42.028Z,3452
2017-09-25T06:38:43.405Z,3812
2017-09-25T06:39:44.782Z,3812
2017-09-25T06:40:46.157Z,3912
2017-09-25T06:41:47.532Z,4016
2017-09-25T06:42:48.911Z,4032
2017-09-25T06:43:50.284Z,4140
2017-09-25T06:44:51.660Z,4348
2017-09-25T06:45:53.037Z,4396
2017-09-25T06:46:54.417Z,4332
2017-09-25T06:47:55.789Z,4324
2017-09-25T06:48:57.168Z,4548
2017-09-25T06:49:58.544Z,4848
2017-09-25T06:50:59.924Z,4784
2017-09-25T06:52:01.307Z,5372
2017-09-25T06:53:02.678Z,5704
2017-09-25T06:54:04.054Z,5928
2017-09-25T06:55:05.430Z,5916
2017-09-25T06:56:06.809Z,6224
2017-09-25T06:57:08.182Z,6964
2017-09-25T06:58:09.559Z,7668
2017-09-25T06:59:10.931Z,9732
2017-09-25T07:00:12.309Z,8656
2017-09-25T07:01:13.686Z,8484
2017-09-25T07:02:15.068Z,9560
2017-09-25T07:03:16.445Z,12012
2017-09-25T07:04:17.822Z,9176
2017-09-25T07:05:19.202Z,9000
2017-09-25T07:06:20.578Z,11012
2017-09-25T07:07:21.955Z,9872
2017-09-25T07:08:23.338Z,9600
2017-09-25T07:09:24.710Z,9080
2017-09-25T07:10:26.088Z,9032
2017-09-25T07:11:27.466Z,8776
2017-09-25T07:12:28.849Z,8920
2017-09-25T07:13:30.224Z,9292
2017-09-25T07:14:31.603Z,10096
2017-09-25T07:15:32.983Z,10816
2017-09-25T07:16:34.366Z,10996
2017-09-25T07:17:35.744Z,10448
2017-09-25T07:18:37.125Z,10380
2017-09-25T07:19:38.504Z,11292
2017-09-25T07:20:39.879Z,12968
2017-09-25T07:21:41.260Z,15936
2017-09-25T07:22:42.640Z,16736
2017-09-25T07:23:44.020Z,15968
2017-09-25T07:24:45.399Z,15552
2017-09-25T07:25:46.783Z,13644
2017-09-25T07:26:48.161Z,14784
2017-09-25T07:27:49.540Z,14172
2017-09-25T07:28:50.919Z,13352
2017-09-25T07:29:52.301Z,12924
2017-09-25T07:30:53.683Z,12860
2017-09-25T07:31:55.066Z,12864
2017-09-25T07:32:56.448Z,12880
2017-09-25T07:33:57.831Z,12896
2017-09-25T07:34:59.209Z,12916
2017-09-25T07:36:00.597Z,12968
2017-09-25T07:37:01.991Z,13080
2017-09-25T07:38:03.364Z,13400
2017-09-25T07:39:04.748Z,13680
2017-09-25T07:40:06.131Z,13672
2017-09-25T07:41:07.513Z,13724
2017-09-25T07:42:08.896Z,13788
2017-09-25T07:43:10.280Z,13820
2017-09-25T07:44:11.662Z,13992
2017-09-25T07:45:13.044Z,14004
2017-09-25T07:46:14.432Z,13884
2017-09-25T07:47:15.818Z,13916
2017-09-25T07:48:17.201Z,13944
2017-09-25T07:49:18.587Z,14136
2017-09-25T07:50:20.000Z,14180
2017-09-25T07:51:21.403Z,14184
2017-09-25T07:52:22.794Z,14248
2017-09-25T07:53:24.176Z,14344
2017-09-25T07:54:25.568Z,14592
2017-09-25T07:55:26.952Z,14656
2017-09-25T07:56:28.330Z,14592
2017-09-25T07:57:29.719Z,14720
2017-09-25T07:59:12.112Z,14944
2017-09-25T08:00:13.488Z,15264
2017-09-25T08:01:14.877Z,15584
2017-09-25T08:02:16.268Z,15776
2017-09-25T08:03:17.654Z,15616
2017-09-25T08:04:19.072Z,15488
2017-09-25T08:05:20.465Z,15328
2017-09-25T08:06:21.853Z,15488
2017-09-25T08:07:23.236Z,15584
2017-09-25T08:08:24.627Z,15264
2017-09-25T08:09:26.009Z,15232
2017-09-25T08:10:27.396Z,15328
2017-09-25T08:11:28.783Z,15232
2017-09-25T08:12:30.171Z,15328
2017-09-25T08:13:31.559Z,15520
2017-09-25T08:14:32.946Z,15648
2017-09-25T08:15:34.332Z,15776
2017-09-25T08:16:35.723Z,16128
2017-09-25T08:17:37.114Z,16320
2017-09-25T08:18:38.497Z,16288
2017-09-25T08:19:39.905Z,16352
2017-09-25T08:20:41.287Z,16384
2017-09-25T08:21:42.683Z,16480
2017-09-25T08:22:44.075Z,16768
2017-09-25T08:23:45.461Z,16960
2017-09-25T08:24:46.850Z,17120
2017-09-25T08:25:48.239Z,17312
2017-09-25T08:26:49.636Z,17920
2017-09-25T08:27:51.023Z,18208
2017-09-25T08:28:52.420Z,18304
2017-09-25T08:29:53.816Z,18528
2017-09-25T08:30:55.214Z,18624
2017-09-25T08:31:56.597Z,19264
2017-09-25T08:32:57.986Z,19584
2017-09-25T08:33:59.393Z,19424
2017-09-25T08:35:00.782Z,18880
2017-09-25T08:36:02.168Z,19904
2017-09-25T08:37:03.558Z,22272
2017-09-25T08:38:04.943Z,25856
2017-09-25T08:39:06.331Z,16480
2017-09-25T08:40:07.721Z,14352
2017-09-25T08:41:09.108Z,21248
2017-09-25T08:42:10.504Z,19680
2017-09-25T08:43:11.892Z,18400
2017-09-25T08:44:13.284Z,18272
2017-09-25T08:45:14.673Z,18912
2017-09-25T08:46:16.061Z,20256
2017-09-25T08:47:17.447Z,20832
2017-09-25T08:48:18.838Z,18560
2017-09-25T08:49:20.233Z,19168
2017-09-25T08:50:21.619Z,19040
2017-09-25T08:51:23.005Z,16000
2017-09-25T08:52:24.391Z,19424
2017-09-25T08:53:25.804Z,16640
2017-09-25T08:54:27.178Z,16544
2017-09-25T08:55:28.602Z,17280
2017-09-25T08:56:29.959Z,18880
2017-09-25T08:57:31.347Z,18880
2017-09-25T08:58:32.732Z,19200
2017-09-25T08:59:34.135Z,19168
2017-09-25T09:00:35.524Z,19264
2017-09-25T09:01:36.910Z,18688
2017-09-25T09:02:38.301Z,18688
2017-09-25T09:03:39.687Z,18688
2017-09-25T09:04:41.074Z,19008
2017-09-25T09:05:42.457Z,19296
2017-09-25T09:06:43.840Z,19936
2017-09-25T09:07:45.228Z,20416
2017-09-25T09:08:46.615Z,20640
2017-09-25T09:09:48.007Z,21184
2017-09-25T09:10:49.405Z,22016
2017-09-25T09:11:50.790Z,23072
2017-09-25T09:12:52.173Z,25856
2017-09-25T09:13:53.560Z,29152
2017-09-25T09:14:54.946Z,28096
2017-09-25T09:15:56.332Z,33664
2017-09-25T09:16:57.720Z,32320
2017-09-25T09:17:59.111Z,31168
2017-09-25T09:19:00.500Z,29760
2017-09-25T09:20:01.888Z,19904
2017-09-25T09:21:03.271Z,17760
2017-09-25T09:22:04.677Z,19072
2017-09-25T09:23:06.062Z,18144
2017-09-25T09:24:07.463Z,18816
2017-09-25T09:25:08.833Z,20000
2017-09-25T09:26:10.226Z,20384
2017-09-25T09:27:11.606Z,20576
2017-09-25T09:28:12.995Z,20608
2017-09-25T09:29:14.383Z,21632
2017-09-25T09:30:15.772Z,22208
2017-09-25T09:31:17.154Z,34496
2017-09-25T09:32:18.541Z,30048
2017-09-25T09:33:19.931Z,19264
2017-09-25T09:34:21.311Z,20832
2017-09-25T09:35:22.696Z,33536
2017-09-25T09:36:24.090Z,33408
2017-09-25T09:37:25.491Z,31456
2017-09-25T09:38:26.880Z,34656
2017-09-25T09:39:28.268Z,33632
2017-09-25T09:40:29.678Z,32576
2017-09-25T09:41:31.060Z,23200
2017-09-25T09:42:32.453Z,34592
2017-09-25T09:43:33.840Z,32832
2017-09-25T09:44:35.231Z,22016
2017-09-25T09:45:36.615Z,19136
2017-09-25T09:46:38.002Z,21216
2017-09-25T09:47:39.390Z,38688
2017-09-25T09:48:40.776Z,20544
2017-09-25T09:49:42.163Z,16928
2017-09-25T09:50:43.546Z,17568
2017-09-25T09:51:44.941Z,33760
2017-09-25T09:52:46.325Z,40192
2017-09-25T09:53:47.713Z,37344
2017-09-25T09:54:49.105Z,36672
2017-09-25T09:55:50.486Z,36480
2017-09-25T09:56:51.874Z,22592
2017-09-25T09:57:53.261Z,19200
2017-09-25T09:58:54.648Z,21312
2017-09-25T09:59:56.039Z,22144
2017-09-25T10:00:57.435Z,20704
2017-09-25T10:01:58.813Z,22592
2017-09-25T10:03:00.203Z,20160
2017-09-25T10:04:01.589Z,21664
2017-09-25T10:05:02.985Z,19264
2017-09-25T10:06:04.368Z,19968
2017-09-25T10:07:05.760Z,19168
2017-09-25T10:08:07.146Z,17440
2017-09-25T10:09:08.531Z,17344
2017-09-25T10:10:09.917Z,18720
2017-09-25T10:11:11.301Z,23776
2017-09-25T10:12:12.693Z,24736
2017-09-25T10:13:14.075Z,22336
2017-09-25T10:14:15.462Z,20544
2017-09-25T10:15:16.851Z,22016
2017-09-25T10:16:18.233Z,20992
2017-09-25T10:17:19.628Z,21824
2017-09-25T10:18:21.014Z,22144
2017-09-25T10:19:22.400Z,22368
2017-09-25T10:20:23.787Z,23232
2017-09-25T10:21:25.169Z,24800
2017-09-25T10:22:26.556Z,31744
2017-09-25T10:23:27.950Z,40992
2017-09-25T10:24:29.328Z,29248
2017-09-25T10:25:30.713Z,26432
2017-09-25T10:26:32.102Z,24096
2017-09-25T10:27:33.485Z,20736
2017-09-25T10:28:34.873Z,16960
2017-09-25T10:29:36.258Z,15160
2017-09-25T10:30:37.643Z,17088
2017-09-25T10:31:39.045Z,21472
2017-09-25T10:32:40.415Z,21216
2017-09-25T10:33:41.798Z,20320
2017-09-25T10:34:43.186Z,19584
2017-09-25T10:35:44.574Z,18752
2017-09-25T10:36:45.960Z,18784
2017-09-25T10:37:47.345Z,19072
2017-09-25T10:38:48.737Z,18688
2017-09-25T10:39:50.114Z,18944
2017-09-25T10:40:51.502Z,20544
2017-09-25T10:41:52.883Z,20416
2017-09-25T10:42:54.276Z,18880
2017-09-25T10:43:55.666Z,16800
2017-09-25T10:44:57.045Z,15368
2017-09-25T10:45:58.431Z,13852
2017-09-25T10:46:59.825Z,13216
2017-09-25T10:48:01.203Z,13420
2017-09-25T10:49:02.587Z,13680
2017-09-25T10:50:03.971Z,13860
2017-09-25T10:51:05.353Z,12940
2017-09-25T10:52:06.738Z,12128
2017-09-25T10:53:08.374Z,12120
2017-09-25T10:54:09.765Z,12560
2017-09-25T10:55:11.147Z,12248
2017-09-25T10:56:12.535Z,11628
2017-09-25T10:57:13.916Z,11364
2017-09-25T10:58:15.301Z,11284
2017-09-25T10:59:16.683Z,11416
2017-09-25T11:00:18.068Z,11632
2017-09-25T11:01:19.459Z,12128
2017-09-25T11:02:20.833Z,13284
2017-09-25T11:03:22.221Z,15072
2017-09-25T11:04:23.602Z,19424
2017-09-25T11:05:24.993Z,23136
2017-09-25T11:06:26.381Z,31648
2017-09-25T11:07:27.764Z,35616
2017-09-25T11:08:29.155Z,28256
2017-09-25T11:09:30.544Z,28064
2017-09-25T11:10:31.928Z,26496
2017-09-25T11:11:33.314Z,25216
2017-09-25T11:12:34.699Z,29184
2017-09-25T11:13:36.084Z,21984
2017-09-25T11:14:37.464Z,22688
2017-09-25T11:15:38.850Z,23232
2017-09-25T11:16:40.237Z,33248
2017-09-25T11:17:41.620Z,41184
2017-09-25T11:18:43.014Z,28640
2017-09-25T11:19:44.398Z,28256
2017-09-25T11:20:45.790Z,27616
2017-09-25T11:21:47.179Z,26496
2017-09-25T11:22:48.567Z,25088
2017-09-25T11:23:49.952Z,24000
2017-09-25T11:24:51.339Z,22752
2017-09-25T11:25:52.722Z,22176
2017-09-25T11:26:54.104Z,22304
2017-09-25T11:27:55.492Z,23040
2017-09-25T11:28:56.875Z,24320
2017-09-25T11:29:58.261Z,26048
2017-09-25T11:30:59.649Z,27296
2017-09-25T11:32:01.035Z,29216
2017-09-25T11:33:02.423Z,34016
2017-09-25T11:34:03.807Z,30080
2017-09-25T11:35:05.200Z,29888
2017-09-25T11:36:06.585Z,25536
2017-09-25T11:37:07.977Z,23136
2017-09-25T11:38:09.366Z,23456
2017-09-25T11:39:10.753Z,21696
2017-09-25T11:40:12.145Z,19552
2017-09-25T11:41:13.529Z,17696
2017-09-25T11:42:14.912Z,15744
2017-09-25T11:43:16.295Z,13976
2017-09-25T11:44:17.682Z,12584
2017-09-25T11:45:19.067Z,11248
2017-09-25T11:46:20.455Z,10112
2017-09-25T11:47:21.846Z,9656
2017-09-25T11:48:23.230Z,9524
2017-09-25T11:49:24.613Z,9680
2017-09-25T11:50:25.996Z,9880
2017-09-25T11:51:27.380Z,9836
2017-09-25T11:52:28.764Z,9828
2017-09-25T11:53:30.151Z,9916
2017-09-25T11:54:31.536Z,9896
2017-09-25T11:55:32.920Z,10156
2017-09-25T11:56:34.306Z,10560
2017-09-25T11:57:35.689Z,10892
2017-09-25T11:58:37.072Z,11044
2017-09-25T11:59:38.453Z,11368
2017-09-25T12:00:39.839Z,11920
2017-09-25T12:01:41.222Z,12612
2017-09-25T12:02:42.614Z,13344
2017-09-25T12:03:43.989Z,13948
2017-09-25T12:04:45.379Z,14252
2017-09-25T12:05:46.756Z,14256
2017-09-25T12:06:48.141Z,14128
2017-09-25T12:07:49.524Z,14188
2017-09-25T12:08:50.909Z,14888
2017-09-25T12:09:52.296Z,15744
2017-09-25T12:10:53.679Z,15852
2017-09-25T12:11:55.063Z,15416
2017-09-25T12:12:56.451Z,15240
2017-09-25T12:13:57.828Z,16140
2017-09-25T12:14:59.214Z,28320
2017-09-25T12:16:00.599Z,29376
2017-09-25T12:17:01.992Z,31936
2017-09-25T12:18:03.368Z,31296
2017-09-25T12:19:04.755Z,31520
2017-09-25T12:20:06.142Z,31360
2017-09-25T12:21:07.557Z,31776
2017-09-25T12:22:08.943Z,31488
2017-09-25T12:23:10.334Z,32128
2017-09-25T12:24:11.725Z,32960
2017-09-25T12:25:13.107Z,33984
2017-09-25T12:26:14.490Z,35776
2017-09-25T12:27:15.880Z,36832
2017-09-25T12:28:17.264Z,39072
2017-09-25T12:29:18.657Z,39584
2017-09-25T12:30:20.044Z,39488
2017-09-25T12:31:21.439Z,39360
2017-09-25T12:32:22.825Z,38432
2017-09-25T12:33:24.210Z,37184
2017-09-25T12:34:25.605Z,37632
2017-09-25T12:35:26.994Z,36992
2017-09-25T12:36:28.399Z,37440
2017-09-25T12:37:29.781Z,36768
2017-09-25T12:38:31.165Z,36096
2017-09-25T12:39:32.557Z,35712
2017-09-25T12:40:33.945Z,36736
2017-09-25T12:41:35.337Z,36928
2017-09-25T12:42:36.730Z,38016
2017-09-25T12:43:38.126Z,39744
2017-09-25T12:44:39.521Z,40000
2017-09-25T12:45:40.914Z,39712
2017-09-25T12:46:42.305Z,40768
2017-09-25T12:47:43.703Z,43072
2017-09-25T12:48:45.089Z,45792
2017-09-25T12:49:46.479Z,46912
2017-09-25T12:50:47.876Z,45888
2017-09-25T12:51:49.277Z,45280
2017-09-25T12:52:50.667Z,41888
2017-09-25T12:53:52.057Z,31552
2017-09-25T12:54:53.453Z,40576
2017-09-25T12:55:54.847Z,23520
2017-09-25T12:56:56.247Z,21984
2017-09-25T12:57:57.636Z,19200
2017-09-25T12:58:59.022Z,35392
2017-09-25T13:00:00.425Z,18048
2017-09-25T13:01:01.815Z,14936
2017-09-25T13:02:03.213Z,13156
2017-09-25T13:03:04.606Z,12312
2017-09-25T13:04:06.039Z,11616
2017-09-25T13:05:07.393Z,11076
2017-09-25T13:06:08.785Z,10544
2017-09-25T13:07:10.176Z,10056
2017-09-25T13:08:11.565Z,9616
2017-09-25T13:09:12.954Z,9564
2017-09-25T13:10:14.342Z,9800
2017-09-25T13:11:15.740Z,10264
2017-09-25T13:12:17.132Z,10624
2017-09-25T13:13:18.517Z,10744
2017-09-25T13:14:19.919Z,10704
2017-09-25T13:15:21.300Z,10452
2017-09-25T13:16:22.686Z,10112
2017-09-25T13:17:24.085Z,9956
2017-09-25T13:18:25.466Z,9916
2017-09-25T13:19:26.850Z,10020
2017-09-25T13:20:28.238Z,10312
2017-09-25T13:21:29.626Z,10708
2017-09-25T13:22:31.011Z,11168
2017-09-25T13:23:32.411Z,11932
2017-09-25T13:24:33.787Z,12912
2017-09-25T13:25:35.169Z,14028
2017-09-25T13:26:36.557Z,14720
2017-09-25T13:27:37.943Z,14824
2017-09-25T13:28:39.327Z,14076
2017-09-25T13:29:40.711Z,12852
2017-09-25T13:30:42.093Z,12088
2017-09-25T13:31:43.477Z,11956
2017-09-25T13:32:44.870Z,12472
2017-09-25T13:33:46.264Z,12824
2017-09-25T13:34:47.654Z,13096
2017-09-25T13:35:49.039Z,13092
2017-09-25T13:36:50.419Z,12904
2017-09-25T13:37:51.804Z,12876
2017-09-25T13:38:53.188Z,12836
2017-09-25T13:39:54.574Z,12532
2017-09-25T13:40:55.952Z,12296
2017-09-25T13:41:57.342Z,12248
2017-09-25T13:42:58.727Z,12292
2017-09-25T13:44:00.116Z,12580
2017-09-25T13:45:01.496Z,13084
2017-09-25T13:46:02.882Z,13684
2017-09-25T13:47:04.265Z,14372
2017-09-25T13:48:05.649Z,15492
2017-09-25T13:49:07.032Z,17184
2017-09-25T13:50:08.417Z,17280
2017-09-25T13:51:09.803Z,18016
2017-09-25T13:52:11.189Z,23520
2017-09-25T13:53:12.572Z,35872
2017-09-25T13:54:13.960Z,29120
2017-09-25T13:55:15.343Z,33728
2017-09-25T13:56:16.739Z,30592
2017-09-25T13:57:18.117Z,27712